createdAt,value
2023-02-16T00:00:31.548Z,59.00
2023-02-16T00:03:20.568Z,56.30
2023-02-16T00:05:49.009Z,60.40
2023-02-16T00:08:27.427Z,61.50
2023-02-16T00:11:19.751Z,61.60
2023-02-16T00:13:56.847Z,62.50
2023-02-16T00:16:33.174Z,62.20
2023-02-16T00:19:03.057Z,62.10
2023-02-16T00:21:30.111Z,61.90
2023-02-16T00:23:57.452Z,63.70
2023-02-16T00:26:45.487Z,65.30
2023-02-16T00:29:16.633Z,61.70
2023-02-16T00:31:43.768Z,63.70
2023-02-16T00:34:26.131Z,63.90
2023-02-16T00:36:53.905Z,60.80
2023-02-16T00:39:34.342Z,61.90
2023-02-16T00:42:05.117Z,62.10
2023-02-16T00:44:37.713Z,58.30
2023-02-16T00:47:12.059Z,58.60
2023-02-16T00:49:44.909Z,59.50
2023-02-16T00:52:30.906Z,58.10
2023-02-16T00:55:02.924Z,58.80
2023-02-16T00:57:34.075Z,60.70
2023-02-16T01:00:06.482Z,58.10
2023-02-16T01:02:36.610Z,57.40
2023-02-16T01:08:00.528Z,57.90
2023-02-16T01:11:06.832Z,58.20
2023-02-16T01:13:48.084Z,59.80
2023-02-16T01:16:20.924Z,59.00
2023-02-16T01:18:55.940Z,58.90
2023-02-16T01:21:33.205Z,61.40
2023-02-16T01:24:20.379Z,60.90
2023-02-16T01:27:00.798Z,60.40
2023-02-16T01:29:30.269Z,61.60
2023-02-16T01:32:02.378Z,61.60
2023-02-16T01:34:29.610Z,58.40
2023-02-16T01:36:58.411Z,62.30
2023-02-16T01:39:25.600Z,61.30
2023-02-16T01:42:04.279Z,60.80
2023-02-16T01:44:35.552Z,63.30
2023-02-16T01:47:24.720Z,62.70
2023-02-16T01:49:51.989Z,64.20
2023-02-16T01:52:31.360Z,62.40
2023-02-16T01:55:08.157Z,60.90
2023-02-16T01:57:40.150Z,61.00
2023-02-16T02:00:30.595Z,60.40
2023-02-16T02:03:21.668Z,60.70
2023-02-16T02:05:50.174Z,59.20
2023-02-16T02:08:43.317Z,60.40
2023-02-16T02:11:19.553Z,60.80
2023-02-16T02:13:59.324Z,59.80
2023-02-16T02:16:30.635Z,60.20
2023-02-16T02:19:01.387Z,62.00
2023-02-16T02:22:15.507Z,63.90
2023-02-16T02:25:12.237Z,61.90
2023-02-16T02:27:46.089Z,62.40
2023-02-16T02:30:29.744Z,61.30
2023-02-16T02:33:15.601Z,63.50
2023-02-16T02:35:56.502Z,61.00
2023-02-16T02:38:33.330Z,60.80
2023-02-16T02:41:16.199Z,60.80
2023-02-16T02:43:51.985Z,58.60
2023-02-16T02:46:35.343Z,59.40
2023-02-16T02:49:23.462Z,58.10
2023-02-16T02:51:51.501Z,58.90
2023-02-16T02:54:42.258Z,59.40
2023-02-16T02:57:35.069Z,60.00
2023-02-16T03:00:26.638Z,62.00
2023-02-16T03:02:59.034Z,62.10
2023-02-16T03:05:28.623Z,62.80
2023-02-16T03:08:06.479Z,62.30
2023-02-16T03:10:55.185Z,64.10
2023-02-16T03:13:27.020Z,64.50
2023-02-16T03:15:57.587Z,62.60
2023-02-16T03:18:45.770Z,65.30
2023-02-16T03:21:33.306Z,63.40
2023-02-16T03:24:18.860Z,64.30
2023-02-16T03:27:04.064Z,66.00
2023-02-16T03:29:33.522Z,64.30
2023-02-16T03:32:01.910Z,65.70
2023-02-16T03:34:30.601Z,63.90
2023-02-16T03:37:00.908Z,65.20
2023-02-16T03:39:31.242Z,65.00
2023-02-16T03:41:59.299Z,63.60
2023-02-16T03:44:26.399Z,66.40
2023-02-16T03:46:53.475Z,66.20
2023-02-16T03:49:21.690Z,65.20
2023-02-16T03:51:49.158Z,64.20
2023-02-16T03:54:18.874Z,64.80
2023-02-16T03:57:00.921Z,64.60
2023-02-16T03:59:28.784Z,65.10
2023-02-16T04:01:56.361Z,64.10
2023-02-16T04:04:23.393Z,66.80
2023-02-16T04:06:50.744Z,65.90
2023-02-16T04:09:17.577Z,66.00
2023-02-16T04:12:13.347Z,65.30
2023-02-16T04:15:00.546Z,64.40
2023-02-16T04:17:48.768Z,65.70
2023-02-16T04:20:20.691Z,66.20
2023-02-16T04:22:48.497Z,65.10
2023-02-16T04:25:16.595Z,66.70
2023-02-16T04:27:56.032Z,64.50
2023-02-16T04:30:30.860Z,65.50
2023-02-16T04:33:01.210Z,65.50
2023-02-16T04:38:03.268Z,60.30
2023-02-16T04:40:49.020Z,63.50
2023-02-16T04:43:16.094Z,63.60
2023-02-16T04:45:43.101Z,63.70
2023-02-16T04:48:10.241Z,61.90
2023-02-16T04:50:40.193Z,66.00
2023-02-16T04:53:12.198Z,63.60
2023-02-16T04:55:39.388Z,63.20
2023-02-16T04:58:17.588Z,63.80
2023-02-16T05:00:45.013Z,64.00
2023-02-16T05:03:14.526Z,61.00
2023-02-16T05:05:50.625Z,48.40
2023-02-16T05:08:22.300Z,61.50
2023-02-16T05:11:08.667Z,63.40
2023-02-16T05:14:14.307Z,64.00
2023-02-16T05:17:01.892Z,61.80
2023-02-16T05:19:51.051Z,62.00
2023-02-16T05:22:22.048Z,60.40
2023-02-16T05:24:49.658Z,61.30
2023-02-16T05:27:18.496Z,60.50
2023-02-16T05:29:45.620Z,60.50
2023-02-16T05:32:12.934Z,62.50
2023-02-16T05:34:40.083Z,61.80
2023-02-16T05:37:07.945Z,59.90
2023-02-16T05:39:37.944Z,63.40
2023-02-16T05:42:14.541Z,60.30
2023-02-16T05:44:44.625Z,61.60
2023-02-16T05:47:21.771Z,62.50
2023-02-16T05:49:58.794Z,63.30
2023-02-16T05:52:28.959Z,64.10
2023-02-16T05:55:07.532Z,62.20
2023-02-16T05:57:35.819Z,61.70
2023-02-16T06:00:03.461Z,61.00
2023-02-16T06:02:40.102Z,60.80
2023-02-16T06:05:10.725Z,58.10
2023-02-16T06:07:49.017Z,59.00
2023-02-16T06:10:36.123Z,59.70
2023-02-16T06:13:08.251Z,62.50
2023-02-16T06:15:35.218Z,59.70
2023-02-16T06:18:05.575Z,60.70
2023-02-16T06:20:32.772Z,59.80
2023-02-16T06:23:20.407Z,57.20
2023-02-16T06:25:52.555Z,60.00
2023-02-16T06:28:39.931Z,57.40
2023-02-16T06:31:22.654Z,57.20
2023-02-16T06:33:53.121Z,57.30
2023-02-16T06:36:42.530Z,55.10
2023-02-16T06:39:09.988Z,56.80
2023-02-16T06:44:44.383Z,52.60
2023-02-16T06:47:22.583Z,54.90
2023-02-16T06:50:14.516Z,53.60
2023-02-16T06:53:02.031Z,52.70
2023-02-16T06:55:50.763Z,50.90
2023-02-16T06:58:38.107Z,53.40
2023-02-16T07:01:05.748Z,53.30
2023-02-16T07:03:55.342Z,52.90
2023-02-16T07:06:32.725Z,50.70
2023-02-16T07:09:00.205Z,53.50
2023-02-16T07:11:38.836Z,52.50
2023-02-16T07:14:06.137Z,50.90
2023-02-16T07:16:33.655Z,50.40
2023-02-16T07:19:01.112Z,51.90
2023-02-16T07:21:48.378Z,51.20
2023-02-16T07:24:18.272Z,50.40
2023-02-16T07:26:45.240Z,51.30
2023-02-16T07:29:15.062Z,49.20
2023-02-16T07:31:42.101Z,51.50
2023-02-16T07:34:09.347Z,51.10
2023-02-16T07:36:36.497Z,49.60
2023-02-16T07:39:03.680Z,50.60
2023-02-16T07:41:30.738Z,50.60
2023-02-16T07:44:03.803Z,49.60
2023-02-16T07:46:33.260Z,51.60
2023-02-16T07:49:09.275Z,48.90
2023-02-16T07:51:40.625Z,48.00
2023-02-16T07:54:08.205Z,48.70
2023-02-16T07:56:36.781Z,49.30
2023-02-16T07:59:24.430Z,48.70
2023-02-16T08:01:51.851Z,49.30
2023-02-16T08:04:19.203Z,47.40
2023-02-16T08:06:47.154Z,48.60
2023-02-16T08:09:14.038Z,48.90
2023-02-16T08:11:41.046Z,47.80
2023-02-16T08:14:17.493Z,48.20
2023-02-16T08:16:44.649Z,49.20
2023-02-16T08:19:13.267Z,47.40
2023-02-16T08:21:40.325Z,47.70
2023-02-16T08:24:09.536Z,48.00
2023-02-16T08:26:41.356Z,47.80
2023-02-16T08:29:12.923Z,46.70
2023-02-16T08:31:40.351Z,47.40
2023-02-16T08:34:08.093Z,47.10
2023-02-16T08:36:36.393Z,45.40
2023-02-16T08:39:05.462Z,46.50
2023-02-16T08:41:35.371Z,46.40
2023-02-16T08:44:02.697Z,46.80
2023-02-16T08:46:30.453Z,44.50
2023-02-16T08:48:59.782Z,44.50
2023-02-16T08:51:28.028Z,46.30
2023-02-16T08:53:55.991Z,45.90
2023-02-16T08:56:23.779Z,45.70
2023-02-16T08:58:51.051Z,44.20
2023-02-16T09:01:18.108Z,46.20
2023-02-16T09:03:47.382Z,44.60
2023-02-16T09:06:16.388Z,45.50
2023-02-16T09:08:44.716Z,44.90
2023-02-16T09:11:14.721Z,44.90
2023-02-16T09:13:43.401Z,44.70
2023-02-16T09:16:12.940Z,42.70
2023-02-16T09:18:45.082Z,43.70
2023-02-16T09:21:15.900Z,44.50
2023-02-16T09:23:47.530Z,43.70
2023-02-16T09:26:15.352Z,44.60
2023-02-16T09:28:43.463Z,43.30
2023-02-16T09:31:15.541Z,42.80
2023-02-16T09:33:43.736Z,44.00
2023-02-16T09:36:13.859Z,44.00
2023-02-16T09:38:41.678Z,44.50
2023-02-16T09:41:24.540Z,44.20
2023-02-16T09:43:57.364Z,45.50
2023-02-16T09:46:27.493Z,44.30
2023-02-16T09:48:55.102Z,43.40
2023-02-16T09:51:33.799Z,44.20
2023-02-16T09:54:06.874Z,43.50
2023-02-16T09:56:40.355Z,43.00
2023-02-16T09:59:14.940Z,42.20
2023-02-16T10:01:51.266Z,42.90
2023-02-16T10:04:39.060Z,43.00
2023-02-16T10:07:23.444Z,44.10
2023-02-16T10:09:55.260Z,44.10
2023-02-16T10:12:28.206Z,42.70
2023-02-16T10:14:58.043Z,43.30
2023-02-16T10:17:33.487Z,41.10
2023-02-16T10:20:10.291Z,41.80
2023-02-16T10:22:51.098Z,41.70
2023-02-16T10:25:23.376Z,42.90
2023-02-16T10:27:58.354Z,41.80
2023-02-16T10:30:28.623Z,43.80
2023-02-16T10:33:04.243Z,44.00
2023-02-16T10:35:46.656Z,42.60
2023-02-16T10:38:22.969Z,41.60
2023-02-16T10:40:56.444Z,40.60
2023-02-16T10:43:38.963Z,42.70
2023-02-16T10:46:06.734Z,41.20
2023-02-16T10:48:35.343Z,41.80
2023-02-16T10:51:07.372Z,41.30
2023-02-16T10:53:42.085Z,41.10
2023-02-16T10:56:40.049Z,39.20
2023-02-16T10:59:13.946Z,41.20
2023-02-16T11:01:45.019Z,39.60
2023-02-16T11:04:33.672Z,39.70
2023-02-16T11:07:09.908Z,38.30
2023-02-16T11:09:37.461Z,40.40
2023-02-16T11:12:15.106Z,40.20
2023-02-16T11:14:48.755Z,38.80
2023-02-16T11:17:18.738Z,38.00
2023-02-16T11:19:53.369Z,38.90
2023-02-16T11:22:32.821Z,38.40
2023-02-16T11:25:14.904Z,39.00
2023-02-16T11:27:52.826Z,39.10
2023-02-16T11:30:29.485Z,37.40
2023-02-16T11:33:23.593Z,37.60
2023-02-16T11:35:51.217Z,38.50
2023-02-16T11:38:33.180Z,38.10
2023-02-16T11:41:02.011Z,39.20
2023-02-16T11:43:33.694Z,38.90
2023-02-16T11:46:16.747Z,38.60
2023-02-16T11:48:46.470Z,37.90
2023-02-16T11:51:15.790Z,36.80
2023-02-16T11:53:44.445Z,36.70
2023-02-16T11:56:27.588Z,37.00
2023-02-16T11:59:09.059Z,35.40
2023-02-16T12:02:04.981Z,36.00
2023-02-16T12:04:45.553Z,36.90
2023-02-16T12:07:24.086Z,36.50
2023-02-16T12:09:57.172Z,35.10
2023-02-16T12:12:37.325Z,34.40
2023-02-16T12:15:22.395Z,34.00
2023-02-16T12:18:08.481Z,33.70
2023-02-16T12:20:46.802Z,35.30
2023-02-16T12:23:29.948Z,34.80
2023-02-16T12:26:11.513Z,35.10
2023-02-16T12:28:49.247Z,32.80
2023-02-16T12:31:29.569Z,33.80
2023-02-16T12:34:07.532Z,34.00
2023-02-16T12:36:52.214Z,34.70
2023-02-16T12:39:31.337Z,35.50
2023-02-16T12:42:26.378Z,33.70
2023-02-16T12:45:19.168Z,35.00
2023-02-16T12:47:51.223Z,35.00
2023-02-16T12:50:23.132Z,34.50
2023-02-16T12:52:57.084Z,34.70
2023-02-16T12:55:32.160Z,34.90
2023-02-16T12:58:09.865Z,35.90
2023-02-16T13:00:46.672Z,36.40
2023-02-16T13:03:27.410Z,35.90
2023-02-16T13:06:13.160Z,36.00
2023-02-16T13:08:58.182Z,36.10
2023-02-16T13:11:31.160Z,35.30
2023-02-16T13:14:05.131Z,36.80
2023-02-16T13:16:43.454Z,36.60
2023-02-16T13:19:15.323Z,37.30
2023-02-16T13:22:10.656Z,36.00
2023-02-16T13:24:50.503Z,35.70
2023-02-16T13:27:31.453Z,35.60
2023-02-16T13:30:38.560Z,35.40
2023-02-16T13:33:29.556Z,34.40
2023-02-16T13:36:11.620Z,35.60
2023-02-16T13:39:27.424Z,35.80
2023-02-16T13:42:22.869Z,35.70
2023-02-16T13:44:52.478Z,36.20
2023-02-16T13:47:42.431Z,37.30
2023-02-16T13:50:34.377Z,37.40
2023-02-16T13:53:17.236Z,36.70
2023-02-16T13:55:44.565Z,37.50
2023-02-16T13:58:30.804Z,36.90
2023-02-16T14:00:59.120Z,36.30
2023-02-16T14:03:40.440Z,37.90
2023-02-16T14:06:40.077Z,38.90
2023-02-16T14:09:48.850Z,38.20
2023-02-16T14:12:40.882Z,39.50
2023-02-16T14:15:19.238Z,39.00
2023-02-16T14:17:49.429Z,38.70
2023-02-16T14:20:31.283Z,41.10
2023-02-16T14:23:00.183Z,39.80
2023-02-16T14:25:39.464Z,38.10
2023-02-16T14:28:57.029Z,40.90
2023-02-16T14:31:27.318Z,41.20
2023-02-16T14:34:03.087Z,41.70
2023-02-16T14:37:17.635Z,39.40
2023-02-16T14:40:08.525Z,40.50
2023-02-16T14:42:38.144Z,41.60
2023-02-16T14:45:22.408Z,41.20
2023-02-16T14:48:24.378Z,42.10
2023-02-16T14:51:36.335Z,42.80
2023-02-16T14:54:57.512Z,40.30
2023-02-16T14:57:29.940Z,41.30
2023-02-16T15:00:01.078Z,41.50
2023-02-16T15:02:31.890Z,41.30
2023-02-16T15:05:00.085Z,39.90
2023-02-16T15:07:31.736Z,40.50
2023-02-16T15:10:00.296Z,40.70
2023-02-16T15:12:40.669Z,40.50
2023-02-16T15:15:12.157Z,39.00
2023-02-16T15:17:44.964Z,40.90
2023-02-16T15:20:22.420Z,39.20
2023-02-16T15:22:53.892Z,40.00
2023-02-16T15:25:43.158Z,39.50
2023-02-16T15:28:22.674Z,40.10
2023-02-16T15:31:00.933Z,40.00
2023-02-16T15:33:40.816Z,41.10
2023-02-16T15:36:35.562Z,40.40
2023-02-16T15:39:10.507Z,41.10
2023-02-16T15:41:40.265Z,41.10
2023-02-16T15:44:29.701Z,42.00
2023-02-16T15:47:12.078Z,41.50
2023-02-16T15:49:39.394Z,41.80
2023-02-16T15:52:29.546Z,41.60
2023-02-16T15:55:01.824Z,41.80
2023-02-16T15:57:40.815Z,40.90
2023-02-16T16:00:20.900Z,41.90
2023-02-16T16:02:54.384Z,42.60
2023-02-16T16:05:43.449Z,41.70
2023-02-16T16:08:17.559Z,42.30
2023-02-16T16:10:56.702Z,41.70
2023-02-16T16:13:29.929Z,43.40
2023-02-16T16:16:07.097Z,44.60
2023-02-16T16:18:44.348Z,42.10
2023-02-16T16:21:25.069Z,41.40
2023-02-16T16:24:05.403Z,43.50
2023-02-16T16:26:38.296Z,43.50
2023-02-16T16:29:31.882Z,45.00
2023-02-16T16:31:59.089Z,45.30
2023-02-16T16:34:47.147Z,44.80
2023-02-16T16:37:37.454Z,45.80
2023-02-16T16:40:32.178Z,44.60
2023-02-16T16:43:21.964Z,46.80
2023-02-16T16:46:20.231Z,46.90
2023-02-16T16:49:17.548Z,46.50
2023-02-16T16:51:52.801Z,48.20
2023-02-16T16:54:40.605Z,47.10
2023-02-16T16:57:29.546Z,48.00
2023-02-16T17:00:19.045Z,48.10
2023-02-16T17:02:56.239Z,47.80
2023-02-16T17:05:44.077Z,48.80
2023-02-16T17:08:31.908Z,48.10
2023-02-16T17:11:26.312Z,47.90
2023-02-16T17:13:55.128Z,48.60
2023-02-16T17:16:25.702Z,48.60
2023-02-16T17:19:03.232Z,48.60
2023-02-16T17:21:33.346Z,50.20
2023-02-16T17:24:00.459Z,48.10
2023-02-16T17:26:36.361Z,49.20
2023-02-16T17:29:11.318Z,47.70
2023-02-16T17:31:58.778Z,47.30
2023-02-16T17:34:35.878Z,48.20
2023-02-16T17:37:07.419Z,47.30
2023-02-16T17:39:34.971Z,49.40
2023-02-16T17:42:03.090Z,48.70
2023-02-16T17:44:30.110Z,49.50
2023-02-16T17:46:57.274Z,49.70
2023-02-16T17:49:24.240Z,48.20
2023-02-16T17:52:02.976Z,49.10
2023-02-16T17:54:30.478Z,47.60
2023-02-16T17:56:57.400Z,47.20
2023-02-16T17:59:24.396Z,47.80
2023-02-16T18:01:54.404Z,47.30
2023-02-16T18:04:21.376Z,46.80
2023-02-16T18:06:48.586Z,46.80
2023-02-16T18:09:23.602Z,46.20
2023-02-16T18:11:53.332Z,45.30
2023-02-16T18:14:21.346Z,45.60
2023-02-16T18:16:54.053Z,46.10
2023-02-16T18:19:21.438Z,46.90
2023-02-16T18:21:48.441Z,45.90
2023-02-16T18:24:15.438Z,46.00
2023-02-16T18:26:45.609Z,45.10
2023-02-16T18:31:58.635Z,45.50
2023-02-16T18:34:26.373Z,44.60
2023-02-16T18:36:53.615Z,45.60
2023-02-16T18:39:21.264Z,47.10
2023-02-16T18:41:48.196Z,48.70
2023-02-16T18:44:15.255Z,46.60
2023-02-16T18:46:42.674Z,46.60
2023-02-16T18:49:12.446Z,47.00
2023-02-16T18:51:39.460Z,45.00
2023-02-16T18:54:15.958Z,45.80
2023-02-16T18:56:43.104Z,44.70
2023-02-16T18:59:10.902Z,47.00
2023-02-16T19:01:38.502Z,45.50
2023-02-16T19:04:07.863Z,45.90
2023-02-16T19:06:35.025Z,46.10
2023-02-16T19:09:02.232Z,45.80
2023-02-16T19:11:30.823Z,46.30
2023-02-16T19:13:58.002Z,46.40
2023-02-16T19:16:25.878Z,47.70
2023-02-16T19:18:53.196Z,47.20
2023-02-16T19:21:20.508Z,47.40
2023-02-16T19:23:50.923Z,49.80
2023-02-16T19:26:19.086Z,48.90
2023-02-16T19:28:47.730Z,48.10
2023-02-16T19:31:21.572Z,46.60
2023-02-16T19:33:56.666Z,47.90
2023-02-16T19:36:44.878Z,48.10
2023-02-16T19:39:15.034Z,48.20
2023-02-16T19:41:56.006Z,50.90
2023-02-16T19:44:23.039Z,49.00
2023-02-16T19:46:50.240Z,49.00
2023-02-16T19:49:17.845Z,48.10
2023-02-16T19:51:47.646Z,50.80
2023-02-16T19:54:18.630Z,49.70
2023-02-16T19:56:48.490Z,49.20
2023-02-16T19:59:16.189Z,49.20
2023-02-16T20:02:03.721Z,49.40
2023-02-16T20:04:30.783Z,50.30
2023-02-16T20:06:59.998Z,51.20
2023-02-16T20:09:28.231Z,50.80
2023-02-16T20:12:15.599Z,48.50
2023-02-16T20:14:52.861Z,50.00
2023-02-16T20:17:22.959Z,50.70
2023-02-16T20:19:50.158Z,51.00
2023-02-16T20:22:37.821Z,50.80
2023-02-16T20:25:18.668Z,51.00
2023-02-16T20:27:48.884Z,51.60
2023-02-16T20:30:20.916Z,51.40
2023-02-16T20:32:59.861Z,50.40
2023-02-16T20:35:27.188Z,51.80
2023-02-16T20:37:54.331Z,53.40
2023-02-16T20:40:22.721Z,52.80
2023-02-16T20:43:09.906Z,51.00
2023-02-16T20:45:42.588Z,51.10
2023-02-16T20:48:10.604Z,52.60
2023-02-16T20:50:53.607Z,53.30
2023-02-16T20:53:20.756Z,51.90
2023-02-16T20:55:48.336Z,53.90
2023-02-16T20:58:35.947Z,52.40
2023-02-16T21:01:04.325Z,52.80
2023-02-16T21:03:49.422Z,54.50
2023-02-16T21:06:18.077Z,55.60
2023-02-16T21:08:45.259Z,53.00
2023-02-16T21:11:13.193Z,55.60
2023-02-16T21:13:43.165Z,55.90
2023-02-16T21:16:11.486Z,53.90
2023-02-16T21:18:50.388Z,55.90
2023-02-16T21:21:17.498Z,56.00
2023-02-16T21:23:56.713Z,56.80
2023-02-16T21:26:28.176Z,56.30
2023-02-16T21:29:07.310Z,54.50
2023-02-16T21:31:34.371Z,55.60
2023-02-16T21:34:14.406Z,54.30
2023-02-16T21:36:41.531Z,55.30
2023-02-16T21:39:08.895Z,55.60
2023-02-16T21:41:39.214Z,55.60
2023-02-16T21:44:08.699Z,56.10
2023-02-16T21:46:38.411Z,57.20
2023-02-16T21:49:06.676Z,58.10
2023-02-16T21:51:36.066Z,57.30
2023-02-16T21:54:43.646Z,54.70
2023-02-16T21:57:10.652Z,56.20
2023-02-16T21:59:38.314Z,59.90
2023-02-16T22:02:05.585Z,58.90
2023-02-16T22:04:33.134Z,56.40
2023-02-16T22:07:03.143Z,56.40
2023-02-16T22:09:33.363Z,55.70
2023-02-16T22:12:01.068Z,56.20
2023-02-16T22:14:48.687Z,57.70
2023-02-16T22:17:15.736Z,56.40
2023-02-16T22:20:03.758Z,55.80
2023-02-16T22:22:53.009Z,57.10
2023-02-16T22:25:20.372Z,57.00
2023-02-16T22:27:47.598Z,55.00
2023-02-16T22:33:02.913Z,53.80
2023-02-16T22:35:30.068Z,54.30
2023-02-16T22:37:57.638Z,54.90
2023-02-16T22:40:24.630Z,56.40
2023-02-16T22:42:53.934Z,55.00
2023-02-16T22:45:24.342Z,58.10
2023-02-16T22:47:54.840Z,54.80
2023-02-16T22:50:22.500Z,55.70
2023-02-16T22:52:58.702Z,55.10
2023-02-16T22:55:25.943Z,54.10
2023-02-16T22:57:56.252Z,52.90
2023-02-16T23:00:27.133Z,55.30
2023-02-16T23:03:14.404Z,53.30
2023-02-16T23:05:42.124Z,53.90
2023-02-16T23:08:12.802Z,52.90
2023-02-16T23:10:59.822Z,53.30
2023-02-16T23:13:27.569Z,52.60
2023-02-16T23:15:54.697Z,53.20
2023-02-16T23:18:22.087Z,53.00
2023-02-16T23:20:49.354Z,52.00
2023-02-16T23:23:16.681Z,50.60
2023-02-16T23:25:49.388Z,51.60
2023-02-16T23:28:19.041Z,52.30
2023-02-16T23:30:47.679Z,54.00
2023-02-16T23:33:24.236Z,53.20
2023-02-16T23:35:55.905Z,52.50
2023-02-16T23:38:30.928Z,54.70
2023-02-16T23:41:09.441Z,52.60
2023-02-16T23:43:40.588Z,52.70
2023-02-16T23:46:10.771Z,54.30
2023-02-16T23:48:45.678Z,53.30
2023-02-16T23:51:32.962Z,52.20
2023-02-16T23:54:00.367Z,53.60
2023-02-16T23:56:31.206Z,52.50
2023-02-16T23:59:02.740Z,52.80
